createdAt,value
2022-08-03T07:27:46.842Z,24.40
2022-08-03T07:30:21.347Z,24.70
2022-08-03T07:32:50.804Z,25.10
2022-08-03T07:35:25.104Z,25.10
2022-08-03T07:37:54.960Z,25.10
2022-08-03T07:40:23.550Z,25.20
2022-08-03T07:42:58.302Z,25.40
2022-08-03T07:45:26.867Z,25.50
2022-08-03T07:47:55.184Z,25.70
2022-08-03T07:50:23.717Z,25.70
2022-08-03T07:52:53.506Z,25.80
2022-08-03T07:55:23.970Z,26.00
2022-08-03T07:58:03.044Z,26.30
2022-08-03T08:00:31.228Z,26.60
2022-08-03T08:02:59.461Z,27.00
2022-08-03T08:05:27.996Z,27.30
2022-08-03T08:07:56.205Z,27.30
2022-08-03T08:10:24.326Z,27.60
2022-08-03T08:12:52.506Z,27.40
2022-08-03T08:15:22.009Z,27.40
2022-08-03T08:17:51.922Z,27.30
2022-08-03T08:20:27.766Z,27.40
2022-08-03T08:22:58.094Z,27.60
2022-08-03T08:25:26.503Z,27.80
2022-08-03T08:28:31.372Z,28.10
2022-08-03T08:30:44.100Z,28.40
2022-08-03T08:33:22.164Z,28.60
2022-08-03T08:35:53.002Z,28.80
2022-08-03T08:38:21.036Z,29.10
2022-08-03T08:40:50.064Z,29.30
2022-08-03T08:43:18.063Z,29.50
2022-08-03T08:45:50.029Z,29.60
2022-08-03T08:48:22.801Z,29.70
2022-08-03T08:50:54.542Z,29.90
2022-08-03T08:53:27.293Z,30.00
2022-08-03T08:56:00.762Z,30.20
2022-08-03T08:58:31.396Z,30.30
2022-08-03T09:01:00.891Z,30.40
2022-08-03T09:03:30.024Z,30.70
2022-08-03T09:06:00.818Z,30.80
2022-08-03T09:08:29.886Z,30.70
2022-08-03T09:10:57.931Z,30.80
2022-08-03T09:13:26.281Z,30.80
2022-08-03T09:16:14.632Z,30.80
2022-08-03T09:18:43.437Z,30.90
2022-08-03T09:21:30.556Z,31.00
2022-08-03T09:24:03.242Z,31.10
2022-08-03T09:26:32.896Z,31.30
2022-08-03T09:29:09.322Z,31.40
2022-08-03T09:31:43.779Z,31.50
2022-08-03T09:34:13.196Z,31.50
2022-08-03T09:36:43.592Z,31.70
2022-08-03T09:39:13.614Z,31.70
2022-08-03T09:41:43.760Z,31.60
2022-08-03T09:44:16.210Z,31.40
2022-08-03T09:46:56.714Z,31.60
2022-08-03T09:49:25.932Z,31.70
2022-08-03T09:52:32.074Z,31.80
2022-08-03T09:54:43.682Z,32.20
2022-08-03T09:57:23.679Z,32.50
2022-08-03T10:00:03.062Z,32.50
2022-08-03T10:02:35.608Z,32.60
2022-08-03T10:05:03.870Z,32.50
2022-08-03T10:07:31.919Z,32.60
2022-08-03T10:10:30.425Z,32.50
2022-08-03T10:12:50.406Z,32.20
2022-08-03T10:16:24.944Z,32.10
2022-08-03T10:18:09.181Z,32.40
2022-08-03T10:20:42.401Z,32.70
2022-08-03T10:23:11.776Z,33.00
2022-08-03T10:25:41.409Z,33.30
2022-08-03T10:28:13.165Z,33.50
2022-08-03T10:30:45.112Z,33.60
2022-08-03T10:33:51.568Z,33.40
2022-08-03T10:36:09.628Z,32.90
2022-08-03T10:38:41.662Z,32.80
2022-08-03T10:41:10.821Z,32.90
2022-08-03T10:43:49.555Z,33.20
2022-08-03T10:46:20.694Z,33.50
2022-08-03T10:48:52.574Z,33.70
2022-08-03T10:51:21.131Z,33.90
2022-08-03T10:53:55.017Z,34.10
2022-08-03T10:57:02.627Z,34.10
2022-08-03T11:00:05.063Z,33.80
2022-08-03T11:03:06.293Z,32.80
2022-08-03T11:05:37.610Z,32.60
2022-08-03T11:08:23.810Z,32.70
2022-08-03T11:10:54.020Z,33.00
2022-08-03T11:13:23.698Z,33.40
2022-08-03T11:15:53.502Z,33.80
2022-08-03T11:18:30.751Z,33.50
2022-08-03T11:21:01.488Z,33.60
2022-08-03T11:24:03.357Z,33.70
2022-08-03T11:26:33.955Z,33.70
2022-08-03T11:29:29.016Z,33.80
2022-08-03T11:31:57.098Z,34.00
2022-08-03T11:34:25.444Z,34.10
2022-08-03T11:37:33.253Z,34.10
2022-08-03T11:40:02.822Z,34.30
2022-08-03T11:42:48.118Z,34.60
2022-08-03T11:45:16.796Z,34.80
2022-08-03T11:47:50.751Z,34.90
2022-08-03T11:50:21.329Z,34.70
2022-08-03T11:52:51.798Z,34.60
2022-08-03T11:55:22.010Z,34.60
2022-08-03T11:59:13.118Z,34.00
2022-08-03T12:00:38.475Z,34.00
2022-08-03T12:03:08.402Z,34.20
2022-08-03T12:05:52.333Z,34.40
2022-08-03T12:08:32.755Z,34.70
2022-08-03T12:11:03.152Z,34.40
2022-08-03T12:14:45.531Z,33.30
2022-08-03T12:16:28.767Z,33.40
2022-08-03T12:18:58.445Z,33.60
2022-08-03T12:21:27.125Z,33.80
2022-08-03T12:24:00.956Z,34.00
2022-08-03T12:26:29.725Z,34.20
2022-08-03T12:28:58.545Z,33.40
2022-08-03T12:31:26.784Z,33.30
2022-08-03T12:34:00.299Z,33.40
2022-08-03T12:36:30.835Z,33.80
2022-08-03T12:39:03.568Z,34.20
2022-08-03T12:41:35.371Z,34.40
2022-08-03T12:44:06.621Z,34.60
2022-08-03T12:46:36.013Z,34.60
2022-08-03T12:49:09.333Z,34.40
2022-08-03T12:51:39.140Z,34.30
2022-08-03T12:54:18.420Z,33.70
2022-08-03T12:56:59.784Z,33.60
2022-08-03T12:59:34.723Z,33.90
2022-08-03T13:02:04.603Z,34.20
2022-08-03T13:04:39.200Z,34.40
2022-08-03T13:07:14.107Z,34.60
2022-08-03T13:09:48.081Z,34.50
2022-08-03T13:12:21.033Z,34.60
2022-08-03T13:14:50.587Z,34.70
2022-08-03T13:17:19.159Z,34.70
2022-08-03T13:19:48.350Z,34.80
2022-08-03T13:22:18.838Z,35.00
2022-08-03T13:24:50.280Z,35.00
2022-08-03T13:28:09.863Z,35.00
2022-08-03T13:30:08.584Z,35.00
2022-08-03T13:32:37.554Z,34.80
2022-08-03T13:35:06.810Z,34.80
2022-08-03T13:37:34.959Z,34.70
2022-08-03T13:40:08.231Z,34.40
2022-08-03T13:42:39.897Z,34.50
2022-08-03T13:45:09.238Z,34.40
2022-08-03T13:47:37.876Z,34.40
2022-08-03T13:50:06.472Z,34.20
2022-08-03T13:52:36.187Z,34.10
2022-08-03T13:55:07.558Z,34.30
2022-08-03T13:58:02.349Z,34.30
2022-08-03T14:00:27.776Z,34.30
2022-08-03T14:03:16.464Z,34.10
2022-08-03T14:05:45.187Z,33.80
2022-08-03T14:08:13.534Z,33.80
2022-08-03T14:10:44.606Z,33.70
2022-08-03T14:13:17.634Z,33.70
2022-08-03T14:15:50.909Z,33.80
2022-08-03T14:18:27.917Z,34.00
2022-08-03T14:21:02.013Z,34.10
2022-08-03T14:23:33.487Z,34.20
2022-08-03T14:26:02.933Z,34.30
2022-08-03T14:28:31.379Z,34.30
2022-08-03T14:30:59.526Z,34.30
2022-08-03T14:33:28.377Z,34.30
2022-08-03T14:35:56.990Z,34.00
2022-08-03T14:38:25.410Z,33.70
2022-08-03T14:40:54.115Z,33.70
2022-08-03T14:43:23.526Z,33.90
2022-08-03T14:45:52.495Z,34.00
2022-08-03T14:50:34.226Z,34.10
2022-08-03T14:51:08.660Z,34.10
2022-08-03T14:53:36.693Z,33.80
2022-08-03T14:56:09.643Z,33.70
2022-08-03T14:58:40.067Z,33.70
2022-08-03T15:02:01.767Z,33.60
2022-08-03T15:03:56.563Z,33.60
2022-08-03T15:06:25.364Z,33.80
2022-08-03T15:09:22.437Z,33.90
2022-08-03T15:11:42.343Z,33.90
2022-08-03T15:14:13.493Z,33.90
2022-08-03T15:16:42.817Z,34.00
2022-08-03T15:20:03.743Z,34.10
2022-08-03T15:21:58.825Z,34.10
2022-08-03T15:24:29.342Z,34.20
2022-08-03T15:26:57.318Z,34.10
2022-08-03T15:30:07.717Z,34.10
2022-08-03T15:32:14.732Z,34.10
2022-08-03T15:34:50.297Z,33.80
2022-08-03T15:37:19.387Z,33.80
2022-08-03T15:39:59.158Z,33.80
2022-08-03T15:42:29.655Z,33.60
2022-08-03T15:44:59.341Z,33.50
2022-08-03T15:47:27.540Z,33.50
2022-08-03T15:49:55.634Z,33.60
2022-08-03T15:52:23.693Z,33.60
2022-08-03T15:54:51.731Z,33.50
2022-08-03T15:57:19.961Z,33.60
2022-08-03T15:59:48.374Z,33.60
2022-08-03T16:02:18.133Z,33.50
2022-08-03T16:04:46.144Z,33.50
2022-08-03T16:07:15.937Z,33.50
2022-08-03T16:09:44.387Z,33.30
2022-08-03T16:12:16.363Z,33.30
2022-08-03T16:14:52.915Z,33.30
2022-08-03T16:17:24.436Z,33.40
2022-08-03T16:19:55.219Z,33.50
2022-08-03T16:22:23.895Z,33.50
2022-08-03T16:24:52.181Z,33.50
2022-08-03T16:27:56.822Z,33.40
2022-08-03T16:30:10.350Z,33.20
2022-08-03T16:32:39.955Z,33.10
2022-08-03T16:35:08.987Z,33.20
2022-08-03T16:37:38.995Z,33.10
2022-08-03T16:40:17.329Z,33.10
2022-08-03T16:42:47.851Z,33.10
2022-08-03T16:45:18.185Z,32.90
2022-08-03T16:47:48.273Z,32.90
2022-08-03T16:50:29.923Z,32.90
2022-08-03T16:52:58.056Z,32.90
2022-08-03T16:55:43.275Z,33.00
2022-08-03T16:58:17.949Z,33.00
2022-08-03T17:00:52.919Z,33.00
2022-08-03T17:03:26.808Z,32.90
2022-08-03T17:05:55.580Z,32.90
2022-08-03T17:08:28.157Z,32.80
2022-08-03T17:10:56.863Z,32.80
2022-08-03T17:13:39.216Z,32.70
2022-08-03T17:16:10.373Z,32.60
2022-08-03T17:18:48.064Z,32.40
2022-08-03T17:21:18.735Z,32.40
2022-08-03T17:23:56.180Z,32.40
2022-08-03T17:26:30.543Z,32.40
2022-08-03T17:29:12.632Z,32.40
2022-08-03T17:32:56.610Z,32.30
2022-08-03T17:35:36.901Z,32.30
2022-08-03T17:38:12.009Z,32.20
2022-08-03T17:40:48.130Z,32.20
2022-08-03T17:44:13.735Z,32.10
2022-08-03T17:46:10.902Z,32.00
2022-08-03T17:48:42.182Z,31.90
2022-08-03T17:51:17.278Z,31.90
2022-08-03T17:53:50.666Z,31.80
2022-08-03T17:56:42.413Z,31.60
2022-08-03T17:59:17.498Z,31.60
2022-08-03T18:02:47.709Z,31.60
2022-08-03T18:05:21.781Z,31.70
2022-08-03T18:08:01.690Z,31.70
2022-08-03T18:10:35.167Z,31.60
2022-08-03T18:13:10.555Z,31.50
2022-08-03T18:15:43.579Z,31.50
2022-08-03T18:18:15.246Z,31.30
2022-08-03T18:20:45.776Z,31.20
2022-08-03T18:23:25.508Z,31.10
2022-08-03T18:26:07.832Z,31.10
2022-08-03T18:28:40.837Z,30.90
2022-08-03T18:31:11.891Z,30.80
2022-08-03T18:34:17.325Z,30.80
2022-08-03T18:36:34.344Z,30.70
2022-08-03T18:39:03.212Z,30.60
2022-08-03T18:41:34.628Z,30.60
2022-08-03T18:44:07.286Z,30.50
2022-08-03T18:46:51.090Z,30.60
2022-08-03T18:49:36.151Z,30.50
2022-08-03T18:52:27.572Z,30.40
2022-08-03T18:55:06.529Z,30.40
2022-08-03T18:57:46.370Z,30.20
2022-08-03T19:00:17.156Z,30.20
2022-08-03T19:02:58.778Z,30.00
2022-08-03T19:05:51.608Z,29.80
2022-08-03T19:08:26.848Z,29.70
2022-08-03T19:11:00.718Z,29.60
2022-08-03T19:13:36.310Z,29.50
2022-08-03T19:16:08.723Z,29.50
2022-08-03T19:18:38.870Z,29.40
2022-08-03T19:21:15.440Z,29.20
2022-08-03T19:23:47.529Z,29.10
2022-08-03T19:26:30.006Z,28.90
2022-08-03T19:29:00.381Z,28.90
2022-08-03T19:31:31.228Z,28.90
2022-08-03T19:34:04.830Z,28.70
2022-08-03T19:36:40.477Z,28.60
2022-08-03T19:39:14.300Z,28.50
2022-08-03T19:41:44.631Z,28.40
2022-08-03T19:44:24.838Z,28.30
2022-08-03T19:46:56.934Z,28.10
2022-08-03T19:50:05.345Z,28.00
2022-08-03T19:52:20.821Z,27.80
2022-08-03T19:55:00.263Z,27.70
2022-08-03T19:57:30.301Z,27.60
2022-08-03T20:00:03.423Z,27.40
2022-08-03T20:02:33.548Z,27.50
2022-08-03T20:05:02.628Z,27.70
2022-08-03T20:07:32.930Z,27.60
2022-08-03T20:10:04.311Z,27.50
2022-08-03T20:12:39.311Z,27.50
2022-08-03T20:15:09.134Z,27.40
2022-08-03T20:17:56.521Z,27.30
2022-08-03T20:20:27.957Z,27.20
2022-08-03T20:22:58.451Z,27.10
2022-08-03T20:25:37.971Z,27.00
2022-08-03T20:28:13.841Z,26.90
2022-08-03T20:30:47.291Z,26.80
2022-08-03T20:33:18.779Z,26.70
2022-08-03T20:35:49.661Z,26.60
2022-08-03T20:38:19.519Z,26.50
2022-08-03T20:40:50.251Z,26.40
2022-08-03T20:43:20.002Z,26.30
2022-08-03T20:46:00.232Z,26.30
2022-08-03T20:48:37.452Z,26.30
2022-08-03T20:51:19.549Z,26.20
2022-08-03T20:54:00.395Z,26.10
2022-08-03T20:56:37.992Z,26.00
2022-08-03T20:59:15.011Z,25.90
2022-08-03T21:01:44.454Z,25.80
2022-08-03T21:04:13.503Z,25.70
2022-08-03T21:09:49.396Z,25.50
2022-08-03T21:12:29.321Z,25.40
2022-08-03T21:13:08.029Z,25.60
2022-08-03T21:15:03.318Z,25.30
2022-08-03T21:17:41.661Z,25.30
2022-08-03T21:20:12.263Z,25.20
2022-08-03T21:22:44.602Z,25.10
2022-08-03T21:25:16.203Z,25.10
2022-08-03T21:27:46.905Z,25.00
2022-08-03T21:30:15.442Z,24.90
2022-08-03T21:32:45.525Z,24.90
2022-08-03T21:35:14.962Z,24.80
